Darstellungsparameter: Aktuell verwendete Einstellungen:
Skalierung der Graphiken ... ?
xyx+y,   Skalierungsfaktor:      Skalierung: Modus: x, Faktor: 1
Darstellungszeitraum ... ?
Vom - - bis: - -   Zeitraum: 25.08.2019 - 25.08.2019
Min/Max/Avg-Anzeige ... ?
Zeige MMA aktuell
Zeige MMA Monat
Zeige MMA alles
Zeige --A aktuell
Zeige --A Monat
Zeige --A alles
Keine MMA-Anzeige
MMA:
Average (ber die Originaldaten)
MMA-Basis: 23.02.2003 - 19.08.2019
Quicknavigation für Darstellung... ?
Tage:      1T, 2T, 3T, 5T -1T -2T -3T -5T +1T +2T +3T +5T
Wochen: 1W, 2W, 3W -1W -2W -3W +1W +2W +3W
Monate: 1M, 3M, 6M -1M -3M -6M +1M +3M +6M
Jahre:    1J, 3J, 5J, 10J -1J -3J -5J -10J +1J +3J +5J +10J
Nutze für die Darstellung ... ?
Originaldaten oder Mittelwerte auf ...
Stundenbasis Tagesbasis Wochenbasis
Monatsbasis Jahresbasis      Datenbasis: Original-Daten
Darstellen als:
Statistik (Auto) Statistik J:M      Darstellung:
Zur Graphik,    zurück zur Übersicht aller Sensoren.
 
Tabellarische Datenbersicht: ?
 
Sensor: Nr:Datum:Temp:Feuchte:Taupunkt:
Aussen-T/F 1 25-08-2019 00:00:00 17.6 C 81 % 14.3 C
2 25-08-2019 00:05:00 17.5 C 81 % 14.2 C
3 25-08-2019 00:10:00 17.4 C 81 % 14.11 C
4 25-08-2019 00:15:00 17.4 C 82 % 14.3 C
5 25-08-2019 00:20:00 17.3 C 82 % 14.2 C
6 25-08-2019 00:25:00 17.3 C 82 % 14.2 C
7 25-08-2019 00:30:00 17.3 C 82 % 14.2 C
8 25-08-2019 00:35:00 17.3 C 82 % 14.2 C
9 25-08-2019 00:40:00 17.3 C 82 % 14.2 C
10 25-08-2019 00:45:00 17.3 C 82 % 14.2 C
11 25-08-2019 00:50:00 17.3 C 82 % 14.2 C
12 25-08-2019 00:55:00 17.3 C 82 % 14.2 C
13 25-08-2019 01:00:00 17.2 C 82 % 14.1 C
14 25-08-2019 01:05:00 17.2 C 82 % 14.1 C
15 25-08-2019 01:10:00 17.1 C 82 % 14 C
16 25-08-2019 01:15:00 17 C 82 % 13.91 C
17 25-08-2019 01:20:00 17 C 83 % 14.09 C
18 25-08-2019 01:25:00 17 C 83 % 14.09 C
19 25-08-2019 01:30:00 16.9 C 83 % 14 C
20 25-08-2019 01:35:00 16.9 C 83 % 14 C
21 25-08-2019 01:40:00 16.9 C 83 % 14 C
22 25-08-2019 01:45:00 16.8 C 83 % 13.9 C
23 25-08-2019 01:50:00 16.8 C 84 % 14.08 C
24 25-08-2019 01:55:00 16.8 C 83 % 13.9 C
25 25-08-2019 02:00:00 16.7 C 83 % 13.8 C
Sensor: Nr:Datum:Temp:Feuchte:Taupunkt:
Aussen-T/F 26 25-08-2019 02:05:00 16.6 C 84 % 13.89 C
27 25-08-2019 02:10:00 16.5 C 84 % 13.79 C
28 25-08-2019 02:15:00 16.4 C 85 % 13.87 C
29 25-08-2019 02:20:00 16.3 C 85 % 13.77 C
30 25-08-2019 02:25:00 16.2 C 85 % 13.68 C
31 25-08-2019 02:30:00 16.1 C 85 % 13.58 C
32 25-08-2019 02:35:00 16 C 86 % 13.66 C
33 25-08-2019 02:40:00 15.9 C 86 % 13.56 C
34 25-08-2019 02:45:00 15.8 C 86 % 13.46 C
35 25-08-2019 02:50:00 15.7 C 87 % 13.54 C
36 25-08-2019 02:55:00 15.7 C 87 % 13.54 C
37 25-08-2019 03:00:00 15.6 C 87 % 13.45 C
38 25-08-2019 03:05:00 15.6 C 87 % 13.45 C
39 25-08-2019 03:10:00 15.6 C 88 % 13.62 C
40 25-08-2019 03:15:00 15.5 C 88 % 13.52 C
41 25-08-2019 03:20:00 15.4 C 88 % 13.42 C
42 25-08-2019 03:25:00 15.3 C 88 % 13.33 C
43 25-08-2019 03:30:00 15.3 C 88 % 13.33 C
44 25-08-2019 03:35:00 15.4 C 89 % 13.6 C
45 25-08-2019 03:40:00 15.6 C 89 % 13.79 C
46 25-08-2019 03:45:00 15.7 C 88 % 13.72 C
47 25-08-2019 03:50:00 15.7 C 88 % 13.72 C
48 25-08-2019 03:55:00 15.7 C 88 % 13.72 C
49 25-08-2019 04:00:00 15.6 C 87 % 13.45 C
50 25-08-2019 04:05:00 15.5 C 88 % 13.52 C
Sensor: Nr:Datum:Temp:Feuchte:Taupunkt:
Aussen-T/F 51 25-08-2019 04:10:00 15.4 C 88 % 13.42 C
52 25-08-2019 04:15:00 15.3 C 88 % 13.33 C
53 25-08-2019 04:20:00 15.3 C 88 % 13.33 C
54 25-08-2019 04:25:00 15.2 C 88 % 13.23 C
55 25-08-2019 04:30:00 15.1 C 89 % 13.3 C
56 25-08-2019 04:35:00 15.1 C 89 % 13.3 C
57 25-08-2019 04:40:00 15 C 89 % 13.2 C
58 25-08-2019 04:45:00 15 C 89 % 13.2 C
59 25-08-2019 04:50:00 14.9 C 89 % 13.1 C
60 25-08-2019 04:55:00 14.9 C 89 % 13.1 C
61 25-08-2019 05:00:00 14.8 C 89 % 13.01 C
62 25-08-2019 05:05:00 14.8 C 89 % 13.01 C
63 25-08-2019 05:10:00 14.7 C 90 % 13.08 C
64 25-08-2019 05:15:00 14.7 C 90 % 13.08 C
65 25-08-2019 05:20:00 14.7 C 90 % 13.08 C
66 25-08-2019 05:25:00 14.6 C 90 % 12.98 C
67 25-08-2019 05:30:00 14.7 C 90 % 13.08 C
68 25-08-2019 05:35:00 14.7 C 90 % 13.08 C
69 25-08-2019 05:40:00 14.6 C 90 % 12.98 C
70 25-08-2019 05:45:00 14.6 C 90 % 12.98 C
71 25-08-2019 05:50:00 14.5 C 90 % 12.88 C
72 25-08-2019 05:55:00 14.5 C 90 % 12.88 C
73 25-08-2019 06:00:00 14.5 C 91 % 13.05 C
74 25-08-2019 06:05:00 14.5 C 91 % 13.05 C
75 25-08-2019 06:10:00 14.5 C 91 % 13.05 C
Sensor: Nr:Datum:Temp:Feuchte:Taupunkt:
Aussen-T/F 76 25-08-2019 06:15:00 14.5 C 91 % 13.05 C
77 25-08-2019 06:20:00 14.4 C 90 % 12.78 C
78 25-08-2019 06:25:00 14.3 C 90 % 12.68 C
79 25-08-2019 06:30:00 14.3 C 91 % 12.85 C
80 25-08-2019 06:35:00 14.4 C 91 % 12.95 C
81 25-08-2019 06:40:00 14.4 C 91 % 12.95 C
82 25-08-2019 06:45:00 14.4 C 91 % 12.95 C
83 25-08-2019 06:50:00 14.4 C 91 % 12.95 C
84 25-08-2019 06:55:00 14.4 C 91 % 12.95 C
85 25-08-2019 07:00:00 14.4 C 92 % 13.12 C
86 25-08-2019 07:05:00 14.6 C 92 % 13.32 C
87 25-08-2019 07:10:00 14.7 C 91 % 13.25 C
88 25-08-2019 07:15:00 14.7 C 91 % 13.25 C
89 25-08-2019 07:20:00 14.7 C 91 % 13.25 C
90 25-08-2019 07:25:00 14.8 C 91 % 13.35 C
91 25-08-2019 07:30:00 14.8 C 91 % 13.35 C
92 25-08-2019 07:35:00 14.8 C 92 % 13.51 C
93 25-08-2019 07:40:00 14.9 C 92 % 13.61 C
94 25-08-2019 07:45:00 15 C 92 % 13.71 C
95 25-08-2019 07:50:00 15.1 C 91 % 13.64 C
96 25-08-2019 07:55:00 15.2 C 91 % 13.74 C
97 25-08-2019 08:00:00 15.2 C 91 % 13.74 C
98 25-08-2019 08:05:00 15.3 C 91 % 13.84 C
99 25-08-2019 08:10:00 15.4 C 91 % 13.94 C
100 25-08-2019 08:15:00 15.6 C 91 % 14.14 C
Sensor: Nr:Datum:Temp:Feuchte:Taupunkt:
Aussen-T/F 101 25-08-2019 08:20:00 15.7 C 91 % 14.24 C
102 25-08-2019 08:25:00 15.8 C 90 % 14.16 C
103 25-08-2019 08:30:00 15.8 C 90 % 14.16 C
104 25-08-2019 08:35:00 16 C 90 % 14.36 C
105 25-08-2019 08:40:00 16.2 C 90 % 14.56 C
106 25-08-2019 08:45:00 16.3 C 91 % 14.83 C
107 25-08-2019 08:50:00 16.4 C 90 % 14.76 C
108 25-08-2019 08:55:00 16.4 C 90 % 14.76 C
109 25-08-2019 09:00:00 16.6 C 90 % 14.95 C
110 25-08-2019 09:05:00 16.7 C 90 % 15.05 C
111 25-08-2019 09:10:00 16.8 C 90 % 15.15 C
112 25-08-2019 09:15:00 16.9 C 90 % 15.25 C
113 25-08-2019 09:20:00 16.9 C 89 % 15.08 C
114 25-08-2019 09:25:00 17.1 C 89 % 15.27 C
115 25-08-2019 09:30:00 17.2 C 88 % 15.2 C
116 25-08-2019 09:35:00 17.3 C 87 % 15.12 C
117 25-08-2019 09:40:00 17.5 C 87 % 15.31 C
118 25-08-2019 09:45:00 17.7 C 87 % 15.51 C
119 25-08-2019 09:50:00 17.8 C 87 % 15.61 C
120 25-08-2019 09:55:00 17.9 C 86 % 15.53 C
121 25-08-2019 10:00:00 18 C 87 % 15.8 C
122 25-08-2019 10:05:00 18.2 C 86 % 15.82 C
123 25-08-2019 10:10:00 18.3 C 86 % 15.92 C
124 25-08-2019 10:15:00 18.4 C 85 % 15.83 C
125 25-08-2019 10:20:00 18.5 C 86 % 16.11 C
Sensor: Nr:Datum:Temp:Feuchte:Taupunkt:
Aussen-T/F 126 25-08-2019 10:25:00 18.6 C 85 % 16.03 C
127 25-08-2019 10:30:00 18.8 C 84 % 16.04 C
128 25-08-2019 10:35:00 18.9 C 85 % 16.32 C
129 25-08-2019 10:40:00 19.1 C 83 % 16.15 C
130 25-08-2019 10:45:00 19.3 C 83 % 16.34 C
131 25-08-2019 10:50:00 19.6 C 83 % 16.63 C
132 25-08-2019 10:55:00 19.7 C 83 % 16.73 C
133 25-08-2019 11:00:00 20 C 82 % 16.83 C
134 25-08-2019 11:05:00 20.3 C 81 % 16.93 C
135 25-08-2019 11:10:00 20.8 C 78 % 16.82 C
136 25-08-2019 11:15:00 21.1 C 78 % 17.11 C
137 25-08-2019 11:20:00 21.4 C 78 % 17.4 C
138 25-08-2019 11:25:00 21.6 C 78 % 17.6 C
139 25-08-2019 11:30:00 21.9 C 76 % 17.48 C
140 25-08-2019 11:35:00 22.2 C 78 % 18.18 C
141 25-08-2019 11:40:00 22.3 C 76 % 17.86 C
142 25-08-2019 11:45:00 22.5 C 75 % 17.85 C
143 25-08-2019 11:50:00 22.7 C 75 % 18.04 C
144 25-08-2019 11:55:00 22.9 C 74 % 18.02 C
145 25-08-2019 12:00:00 23.2 C 74 % 18.31 C
146 25-08-2019 12:05:00 23.5 C 75 % 18.81 C
147 25-08-2019 12:10:00 23.8 C 73 % 18.67 C
148 25-08-2019 12:15:00 24 C 72 % 18.64 C
149 25-08-2019 12:20:00 24.3 C 71 % 18.7 C
150 25-08-2019 12:25:00 24.5 C 70 % 18.67 C
Sensor: Nr:Datum:Temp:Feuchte:Taupunkt:
Aussen-T/F 151 25-08-2019 12:30:00 24.7 C 70 % 18.86 C
152 25-08-2019 12:35:00 24.9 C 68 % 18.59 C
153 25-08-2019 12:40:00 25.2 C 67 % 18.63 C
154 25-08-2019 12:45:00 25.3 C 67 % 18.73 C
155 25-08-2019 12:50:00 25.5 C 67 % 18.92 C
156 25-08-2019 12:55:00 25.6 C 66 % 18.77 C
157 25-08-2019 13:00:00 25.8 C 66 % 18.96 C
158 25-08-2019 13:05:00 25.9 C 66 % 19.06 C
159 25-08-2019 13:10:00 26.2 C 65 % 19.1 C
160 25-08-2019 13:15:00 26.4 C 64 % 19.04 C
161 25-08-2019 13:20:00 26.6 C 63 % 18.97 C
162 25-08-2019 13:25:00 26.8 C 63 % 19.16 C
163 25-08-2019 13:30:00 26.9 C 63 % 19.26 C
164 25-08-2019 13:35:00 27.1 C 62 % 19.19 C
165 25-08-2019 13:40:00 27.2 C 61 % 19.02 C
166 25-08-2019 13:45:00 27.3 C 61 % 19.12 C
167 25-08-2019 13:50:00 27.4 C 60 % 18.95 C
168 25-08-2019 13:55:00 27.6 C 61 % 19.4 C
169 25-08-2019 14:00:00 27.7 C 59 % 18.96 C
170 25-08-2019 14:05:00 27.8 C 58 % 18.78 C
171 25-08-2019 14:10:00 27.9 C 58 % 18.87 C
172 25-08-2019 14:15:00 28.1 C 58 % 19.06 C
173 25-08-2019 14:20:00 28.2 C 56 % 18.59 C
174 25-08-2019 14:25:00 28.2 C 58 % 19.15 C
175 25-08-2019 14:30:00 28.3 C 57 % 18.96 C
Sensor: Nr:Datum:Temp:Feuchte:Taupunkt:
Aussen-T/F 176 25-08-2019 14:35:00 28.4 C 58 % 19.34 C
177 25-08-2019 14:40:00 28.7 C 56 % 19.05 C
178 25-08-2019 14:45:00 28.8 C 56 % 19.14 C
179 25-08-2019 14:50:00 29.1 C 56 % 19.42 C
180 25-08-2019 14:55:00 29.3 C 54 % 19.02 C
181 25-08-2019 15:00:00 29.6 C 54 % 19.3 C
182 25-08-2019 15:05:00 29.8 C 54 % 19.49 C
183 25-08-2019 15:10:00 29.9 C 51 % 18.66 C
184 25-08-2019 15:15:00 30.1 C 54 % 19.76 C
185 25-08-2019 15:20:00 30.2 C 54 % 19.86 C
186 25-08-2019 15:25:00 30.3 C 51 % 19.03 C
187 25-08-2019 15:30:00 30.3 C 51 % 19.03 C
188 25-08-2019 15:35:00 30.4 C 50 % 18.8 C
189 25-08-2019 15:40:00 30.5 C 49 % 18.57 C
190 25-08-2019 15:45:00 30.6 C 51 % 19.3 C
191 25-08-2019 15:50:00 30.8 C 50 % 19.17 C
192 25-08-2019 15:55:00 30.9 C 48 % 18.61 C
193 25-08-2019 16:00:00 31.1 C 47 % 18.45 C
194 25-08-2019 16:05:00 31.3 C 48 % 18.97 C
195 25-08-2019 16:10:00 31.4 C 47 % 18.73 C
196 25-08-2019 16:15:00 31.4 C 48 % 19.06 C
197 25-08-2019 16:20:00 31.3 C 48 % 18.97 C
198 25-08-2019 16:25:00 31.1 C 48 % 18.79 C
199 25-08-2019 16:30:00 30.9 C 50 % 19.26 C
200 25-08-2019 16:35:00 31 C 49 % 19.03 C
Sensor: Nr:Datum:Temp:Feuchte:Taupunkt:
Aussen-T/F 201 25-08-2019 16:40:00 31.1 C 49 % 19.12 C
202 25-08-2019 16:45:00 31.1 C 49 % 19.12 C
203 25-08-2019 16:50:00 31.2 C 57 % 21.66 C
204 25-08-2019 16:55:00 31.3 C 56 % 21.47 C
205 25-08-2019 17:00:00 31.6 C 49 % 19.58 C
206 25-08-2019 17:05:00 31.8 C 48 % 19.43 C
207 25-08-2019 17:10:00 32 C 46 % 18.93 C
208 25-08-2019 17:15:00 32.1 C 44 % 18.3 C
209 25-08-2019 17:20:00 32.2 C 46 % 19.11 C
210 25-08-2019 17:25:00 32.4 C 45 % 18.93 C
211 25-08-2019 17:30:00 32.6 C 53 % 21.77 C
212 25-08-2019 17:35:00 32.5 C 51 % 21.05 C
213 25-08-2019 17:40:00 32.6 C 47 % 19.81 C
214 25-08-2019 17:45:00 32.8 C 46 % 19.65 C
215 25-08-2019 17:50:00 32.7 C 44 % 18.84 C
216 25-08-2019 17:55:00 32.3 C 45 % 18.84 C
217 25-08-2019 18:00:00 31.7 C 46 % 18.65 C
218 25-08-2019 18:05:00 31.3 C 47 % 18.63 C
219 25-08-2019 18:10:00 30.7 C 47 % 18.09 C
220 25-08-2019 18:15:00 30.2 C 50 % 18.62 C
221 25-08-2019 18:20:00 29.9 C 49 % 18.02 C
222 25-08-2019 18:25:00 29.7 C 51 % 18.48 C
223 25-08-2019 18:30:00 29.7 C 52 % 18.79 C
224 25-08-2019 18:35:00 29.6 C 57 % 20.17 C
225 25-08-2019 18:40:00 29.6 C 59 % 20.73 C
Sensor: Nr:Datum:Temp:Feuchte:Taupunkt:
Aussen-T/F 226 25-08-2019 18:45:00 29.5 C 59 % 20.64 C
227 25-08-2019 18:50:00 29.4 C 59 % 20.55 C
228 25-08-2019 18:55:00 29.3 C 59 % 20.45 C
229 25-08-2019 19:00:00 29 C 60 % 20.44 C
230 25-08-2019 19:05:00 28.7 C 61 % 20.43 C
231 25-08-2019 19:10:00 28.4 C 60 % 19.88 C
232 25-08-2019 19:15:00 28.1 C 63 % 20.39 C
233 25-08-2019 19:20:00 27.7 C 63 % 20.01 C
234 25-08-2019 19:25:00 27.2 C 63 % 19.54 C
235 25-08-2019 19:30:00 26.8 C 64 % 19.42 C
236 25-08-2019 19:35:00 26.5 C 65 % 19.38 C
237 25-08-2019 19:40:00 26.2 C 65 % 19.1 C
238 25-08-2019 19:45:00 25.9 C 65 % 18.81 C
239 25-08-2019 19:50:00 25.6 C 65 % 18.53 C
240 25-08-2019 19:55:00 25.4 C 66 % 18.58 C
241 25-08-2019 20:00:00 25.2 C 67 % 18.63 C
242 25-08-2019 20:05:00 25.1 C 68 % 18.78 C
243 25-08-2019 20:10:00 24.8 C 69 % 18.72 C
244 25-08-2019 20:15:00 24.6 C 69 % 18.53 C
245 25-08-2019 20:20:00 24.4 C 70 % 18.57 C
246 25-08-2019 20:25:00 24.3 C 71 % 18.7 C
247 25-08-2019 20:30:00 24.2 C 72 % 18.83 C
248 25-08-2019 20:35:00 24 C 73 % 18.86 C
249 25-08-2019 20:40:00 23.9 C 74 % 18.98 C
250 25-08-2019 20:45:00 23.8 C 74 % 18.89 C
Sensor: Nr:Datum:Temp:Feuchte:Taupunkt:
Aussen-T/F 251 25-08-2019 20:50:00 23.8 C 75 % 19.1 C
252 25-08-2019 20:55:00 23.7 C 75 % 19 C
253 25-08-2019 21:00:00 23.6 C 75 % 18.91 C
254 25-08-2019 21:05:00 23.6 C 76 % 19.12 C
255 25-08-2019 21:10:00 23.5 C 76 % 19.02 C
256 25-08-2019 21:15:00 23.4 C 76 % 18.93 C
257 25-08-2019 21:20:00 23.3 C 76 % 18.83 C
258 25-08-2019 21:25:00 23.2 C 77 % 18.94 C
259 25-08-2019 21:30:00 23 C 77 % 18.75 C
260 25-08-2019 21:35:00 22.8 C 77 % 18.56 C
261 25-08-2019 21:40:00 22.7 C 78 % 18.67 C
262 25-08-2019 21:45:00 22.4 C 79 % 18.58 C
263 25-08-2019 21:50:00 22.2 C 79 % 18.38 C
264 25-08-2019 21:55:00 22.1 C 80 % 18.49 C
265 25-08-2019 22:00:00 21.9 C 80 % 18.29 C
266 25-08-2019 22:05:00 21.8 C 81 % 18.39 C
267 25-08-2019 22:10:00 21.6 C 81 % 18.2 C
268 25-08-2019 22:15:00 21.4 C 82 % 18.2 C
269 25-08-2019 22:20:00 21.3 C 82 % 18.1 C
270 25-08-2019 22:25:00 21.2 C 82 % 18 C
271 25-08-2019 22:30:00 21.1 C 83 % 18.1 C
272 25-08-2019 22:35:00 21 C 83 % 18 C
273 25-08-2019 22:40:00 20.9 C 83 % 17.9 C
274 25-08-2019 22:45:00 20.8 C 84 % 18 C
275 25-08-2019 22:50:00 20.7 C 84 % 17.9 C
Sensor: Nr:Datum:Temp:Feuchte:Taupunkt:
Aussen-T/F 276 25-08-2019 22:55:00 20.6 C 84 % 17.8 C
277 25-08-2019 23:00:00 20.5 C 84 % 17.7 C
278 25-08-2019 23:05:00 20.4 C 84 % 17.61 C
279 25-08-2019 23:10:00 20.3 C 85 % 17.7 C
280 25-08-2019 23:15:00 20.3 C 85 % 17.7 C
281 25-08-2019 23:20:00 20.2 C 85 % 17.6 C
282 25-08-2019 23:25:00 20.2 C 85 % 17.6 C
283 25-08-2019 23:30:00 20.1 C 86 % 17.68 C
284 25-08-2019 23:35:00 20 C 86 % 17.59 C
285 25-08-2019 23:40:00 19.9 C 86 % 17.49 C
286 25-08-2019 23:45:00 19.9 C 86 % 17.49 C
287 25-08-2019 23:50:00 19.8 C 86 % 17.39 C
288 25-08-2019 23:55:00 19.7 C 87 % 17.47 C

Legende:
   Min
   Max


Maximal/Minimal-Werte vom 23.02.2003 - 19.08.2019

Sensor Min Max Avg
Temp
(Aussen-T/F)
-16.4 °C
20-12-2009  01:30:01
40.4 °C
25-07-2019  16:20:00
11.22 °C
Feuchte
(Aussen-T/F)
18 %
17-07-2015  15:55:00
100 %
07-10-2012  03:05:00
76.99 %

Die Daten stammen von einer Davis Vantage Pro 2 Wetter-Station und werden unter Linux mit der Software wview2wettercgi und aufbereitet. Alle Angaben erfolgen ohne Gewähr für ihre Vollständigkeit oder Richtigkeit.
Kontakt: Rainer Krienke krienke@uni-koblenz.de . Meine Webseiten an der Uni Koblenz oder privat.
Version: $Revision: 0.78 $